ALUPRESS AG
ALUPRESS AG's Shipments Over Time
Supply Ratings
Shipment Reliability and Frequency Volume of Goods
Avg. Shipments per Month: 1.23 Average TEU per month: 1.94
Active Months: 6 Average TEU per Shipment: 1.46
Shipment Frequency Std. Dev.: 1.88
Shipments By Companies
Company Name Shipments
VITESCO TECHNOLOGIES USA LLC 96 shipments
ALUPRESS LLC 35 shipments
AE BOSCH C O PEDRAZA CUSTOMHOUSE EL 17 shipments
BENDIX 90 FINEGAN 11 shipments
BENDIX COMMERCIAL VEHICLE SYSTEMS 4 shipments
BENDIX COMMERCIAL VEHICLE SYSTEMS L 1 shipments
VITESCO TECHNOLIGIES USA LLC 1 shipments
Shipments By HS Code
HS Code Shipments
761699 Aluminium; articles n.e.c. in heading 7616 112 shipments
681520 Peat; articles of peat n.e.c. or included 21 shipments
761699.0 Aluminium; articles n.e.c. in chapter 76 10 shipments
871493 Cycles; parts thereof, hubs (other than coaster braking hubs and hub brakes) and free-wheel sprocket-wheels 5 shipments
841590.0 Air conditioning machines; comprising a motor driven fan and elements for changing the temperature and humidity, including those machines in which the humidity cannot be separately regulated 3 shipments
845691 Machine-tools; for working any material by removal of material, by laser or other light or photon beam, ultrasonic, electro-discharge, electro-chemical, electron beam, ionic-beam, or plasma arc processes; water-jet cutting machines 3 shipments
392220 Plastics; lavatory seats and covers 2 shipments
732599.0 Iron or steel; cast articles 1 shipments
761520 Aluminium; sanitary ware and parts thereof 1 shipments
820411 Tools, hand; hand-operated spanners and wrenches (including torque meter wrenches but not including tap wrenches), non-adjustable 1 shipments
845430 Casting machines; of a kind used in metallurgy or in metal foundries 1 shipments
845430.0 Converters, ladles, ingot moulds and casting machines; of a kind used metallurgy or in metal foundries 1 shipments
845620.0 Machine-tools; for working any material by removal of material, by laser or other light or photon beam, ultrasonic, electro-discharge, electro-chemical, electron beam, ionic-beam, or plasma arc processes; water-jet cutting machines 1 shipments
890190 Vessels; n.e.c. in heading no. 8901, for the transport of goods and other vessels for the transport of both persons and goods 1 shipments
950640 Table-tennis articles and equipment 1 shipments
to show market analysis.
Similar Suppliers
to see more.
Latest Shipments
Arrival Date Bill Of Lading Consignee Weight HS Code Description
2026-03-29 BWLEMIL69620588 BENDIX 90 FINEGAN 3616.0 kg 761699.0 ALUMINUM LUGGAGE FRAMES
2026-03-29 BWLEMIL69620532 BENDIX 90 FINEGAN 2012.0 kg 761699.0 ALUMINUM LUGGAGE FRAMES
2026-03-21 BWLEMIL69597211 BENDIX 90 FINEGAN 2716.0 kg 761699.0 ALUMINUM LUGGAGE FRAMES
2026-03-13 GOLESNTG26011541 BENDIX COMMERCIAL VEHICLE SYSTEMS 6423.0 kg 841590.0 AUTOMOTIVE PARTS
2026-03-07 BWLEMIL69547849 BENDIX 90 FINEGAN 1602.0 kg 761699.0 ALUMINUM LUGGAGE FRAMES
2026-03-05 CUOL7046US535120 ALUPRESS LLC 9358.0 kg 845620.0 TOOLS FOR WORKING METAL HS CODE
2026-02-28 BWLEMIL69518326 BENDIX 90 FINEGAN 2091.0 kg 761699.0 ALUMINUM LUGGAGE FRAMES
2026-01-26 BWLEMIL59440734 BENDIX 90 FINEGAN 23.0 kg 732599.0 CAST ALUMINIUM ARTICLES
2026-01-03 GOLESNTG25096737 BENDIX COMMERCIAL VEHICLE SYSTEMS 1183.0 kg 841590.0 AUTOMOTIVE PARTS
2025-12-23 GOLESNTG25091999 BENDIX COMMERCIAL VEHICLE SYSTEMS 183.0 kg 841590.0 AUTOMOTIVE PARTS
2025-12-19 BWLEMIL59318055 BENDIX 90 FINEGAN 826.0 kg 761699.0 ALUMINUM CASTINGS
2025-12-11 BWLEMIL59277029 BENDIX 90 FINEGAN 551.0 kg 761699.0 ALUMINUM CASTINGS
2025-12-11 BWLEMIL59294169 BENDIX 90 FINEGAN 1097.0 kg 761699.0 ALUMINUM CASTINGS
2025-11-14 BWLEMIL59202513 BENDIX 90 FINEGAN 164.0 kg 761699.0 ALUMINUM CASTINGS
2025-09-26 BWLEMIL59002008 BENDIX COMMERCIAL VEHICLE SYSTEMS L 3946.0 kg 761699.0 ALUMINUM CASTINGS
2025-09-12 BWLEMIL58951732 BENDIX 90 FINEGAN 1293.0 kg 845430.0 AUTOMOTIVE DIE CASTING COMPONENTS
2025-03-31 CSWAM25EXL07771 ALUPRESS LLC 474.0 kg VERSCHIEDENES
2024-10-15 BANQ1061953514 BENDIX COMMERCIAL VEHICLE SYSTEMS 2154.0 kg 845430 AUTOMOTIVE DIE CASTING COMPONENTS
2024-05-19 CBLAML0424300387 ALUPRESS LLC 7820.0 kg 820411 EURO GRID BOX EURO GRID BOX
2024-04-27 ECUWMILCHS04413 ALUPRESS LLC 6970.0 kg 890190 TRANSPORT LADLE
2023-11-12 CHSL450290779ECS AE BOSCH C O PEDRAZA CUSTOMHOUSE EL 134.0 kg 761699 STC AUTOMOTIVE PARTS HS 7616995060 1 PACKAGES HBL 450290779ECS
2023-11-04 CHSL451949038ECS AE BOSCH C O PEDRAZA CUSTOMHOUSE EL 275.0 kg 761699 STC AUTOMOTIVE PARTS HS 7616995060 2 PACKAGES HBL 451949038ECS
2023-10-22 CHSL447836515ECS AE BOSCH C O PEDRAZA CUSTOMHOUSE EL 536.0 kg 761699 STC AUTOMOTIVE PARTS HS 7616995060 4 PACKAGES HBL 447836515ECS
2023-09-27 CHSL446905207ECS AE BOSCH C O PEDRAZA CUSTOMHOUSE EL 414.0 kg 761699 STC AUTOMOTIVE PARTS HS 7616995060 3 PACKAGES HBL 446905207ECS
2023-09-07 CHSL444116284ECS AE BOSCH C O PEDRAZA CUSTOMHOUSE EL 552.0 kg 761699 STC AUTOMOTIVE PARTS HS 7616995060 4 PACKAGES HBL 444116284ECS
2023-09-07 CHSL444146513ECS AE BOSCH C O PEDRAZA CUSTOMHOUSE EL 402.0 kg 761699 STC AUTOMOTIVE PARTS HS 7616995060 3 PACKAGES HBL 444146513ECS
2023-08-22 CHSL442912600ECS AE BOSCH C O PEDRAZA CUSTOMHOUSE EL 1073.0 kg 761699 STC AUTOMOTIVE PARTS HS 7616995060 1 PACKAGES HBL
2023-08-14 GBWQ6040408892 ALUPRESS LLC 4755.0 kg 681520 ARTICLES OF ALUMINIUM
2023-08-11 CHSL440451453ECS AE BOSCH C O PEDRAZA CUSTOMHOUSE EL 691.0 kg 761699 STC AUTOMOTIVE PARTS HS 7616995060 5 PACKAGES HBL 440451453ECS
2023-04-20 BANQ1051615445 VITESCO TECHNOLOGIES USA LLC 2649.0 kg 392220 COVER 227 CTN ON 19 PALLETS HBL: BANQ1051615445 DEST. TXC .
2023-04-16 GBWQ6040321022 ALUPRESS LLC 6079.0 kg 950640 ARTICLE OF ALUMINIUM
2023-03-30 BANQ1051395104 VITESCO TECHNOLOGIES USA LLC 2510.0 kg 392220 COVER 204 CTN ON 18 PALLETS HBL: BANQ1051395104 DEST. TXC1051 395 104 . .
2023-03-16 BANQBRE5743810 VITESCO TECHNOLOGIES USA LLC 1621.0 kg 761699 COVER 117 CTN ON 10 PLT HS-CODE 761699 HBL BANQBREBRE5743810 DESTINATION CFS TXC .
2023-03-08 BANQBRE5728724 VITESCO TECHNOLOGIES USA LLC 702.0 kg 761699 COVER 48 CTN ON 4 PLT HS-CODE 761699 HBL BANQBREBRE5728724 DESTINATION CFS HOUSTON
2023-03-08 BANQBRE5734757 VITESCO TECHNOLOGIES USA LLC 684.0 kg 761699 COVER 46 CTN ON 4 PLT HS-CODE 761699 HBL BANQBREBRE5734757 DESTINATION CFS HOUSTON
2023-02-24 GBWQ6040288274 ALUPRESS LLC 5516.0 kg 681520 ARTICLES OF ALUMINIUM
2023-02-22 BANQBRE5717311 VITESCO TECHNOLOGIES USA LLC 563.0 kg 761699 COVER 37 CTN ON 4 PLT HS-CODE 761699 HBL BANQBREBRE5717311 DESTINATION CFS HOUSTON
2023-02-20 GBWQ6040298242 ALUPRESS LLC 1761.0 kg 871493 PARTS FOR ALUMINIUM
2023-01-31 CHSL418728103ECS AE BOSCH C O PEDRAZA CUSTOMHOUSE EL 1730.0 kg 761699 STC AUTOMOTIVE PARTS HS 76169910 12 PACKAGES HBL 418728103ECS
2022-12-30 BANQBRE5664796 VITESCO TECHNOLOGIES USA LLC 371.0 kg 761699 COVER 31 CTN ON 3 PLT HS-CODE 761699 HBL BANQBRE5664796 DESTINATION CFS HOUSTON
2022-12-21 BANQBRE5658282 VITESCO TECHNOLOGIES USA LLC 1783.0 kg 761699 COVER 143 CTN ON 12 PLT HS-CODE 761699 HBL BANQBREBRE5658282 DESTINATION CFS TXC .
2022-12-16 GBWQ6040245601 ALUPRESS LLC 5321.0 kg 681520 ARTICLES OF ALUMINIUM
2022-12-11 BANQBRE5644331 VITESCO TECHNOLOGIES USA LLC 839.0 kg 761699 COVER 72 CTN ON 6 PLT HS-CODE 761699 HBL BANQBREBRE5644331 DESTINATION CFS HOUSTON
2022-12-05 CHSL415682828ECS AE BOSCH C O PEDRAZA CUSTOMHOUSE EL 146.0 kg 761699 STC AUTOMOTIVE PARTS HS 76169910 1 PACKAGES HBL 415682828ECS
2022-12-05 CHSL415376247ECS AE BOSCH C O PEDRAZA CUSTOMHOUSE EL 914.0 kg 761699 STC AUTOMOTIVE PARTS HS 76169910 7 PACKAGES HBL 415376247ECS
2022-12-01 BANQBRE5637516 VITESCO TECHNOLOGIES USA LLC 762.0 kg 761699 COVER 59 CTN ON 5 PLT HS-CODE 761699 INVOICE NO. 1122133419, 1122133420 HBL BANQBREBRE5637516 DESTINATION CFS HOUSTON
2022-11-28 BANQBRE5630387 VITESCO TECHNOLOGIES USA LLC 1149.0 kg 761699 COVER 93 CTN ON 8 PLT HS-CODE 761699 HBL BANQBREBRE5630387 INVOICE NO. 1122132513, 1122132560 ORDER NO. 30001966, 30001967 DESTINATION CFS HOUSTON
2022-11-17 BANQBRE5621803 VITESCO TECHNOLOGIES USA LLC 905.0 kg 761699 COVER 71 CTNS. ON 6 PLTS. HS-CODE 761699 HBL BANQBRE5621803 INV 1122131795,1122131796 ORDER NO.30001966,30001967 DESTINATION CFS HOUSTON
2022-11-08 BANQBRE5607892 VITESCO TECHNOLOGIES USA LLC 550.0 kg 761699 COVER 47 CTN ON 4 PLT HS-CODE 761699 HBL BANQBRE5607892 DESTINATION CFS HOUSTON
2022-11-08 BANQBRE5600128 VITESCO TECHNOLOGIES USA LLC 1356.0 kg 761699 COVER 116 CTN ON 10 PLT HS-CODE 761699 HBL BANQBRE5600128 DESTINATION CFS HOUSTON
Contact information Request
to request contact information.
Other address
ALFRED-AMMON-STRASSE 36
VIA ALFRED AMMON 36 39042 BRESSANONE BZ
ALFRED AMMON STRASSE 36
ALFRED AMMON STRASSE 36 BRESSANONE
VIA ALFRED AMMON 36 BRESSANONE 39042 IT
A -AMMON-STR 36 BRESSANONE 39042 IT
ALFRED AMMON STRABE 36 I
ALFRED AMONN STRASSE 36
ALFRED-AMMON-STRASSE 36 BRIXEN 39042 IT